createdAt,value
2023-03-25T10:34:36.366Z,18.8
2023-03-25T10:49:36.411Z,20.1
2023-03-25T11:04:36.425Z,19.3
2023-03-25T11:19:36.389Z,20.0
2023-03-25T11:34:36.508Z,20.9
2023-03-25T11:49:36.433Z,21.7
2023-03-25T12:04:36.442Z,21.4
2023-03-25T12:19:36.473Z,21.3
2023-03-25T12:34:38.386Z,19.2
2023-03-25T12:49:36.531Z,21.0
2023-03-25T13:04:36.554Z,23.3
2023-03-25T13:19:36.552Z,21.6
2023-03-25T13:34:36.588Z,20.7
2023-03-25T13:49:36.615Z,22.3
2023-03-25T14:04:36.640Z,23.0
2023-03-25T14:19:36.653Z,20.1
2023-03-25T14:34:37.243Z,18.5
2023-03-25T14:49:36.683Z,17.9
2023-03-25T15:04:36.654Z,18.6
2023-03-25T15:19:36.674Z,17.8
2023-03-25T15:34:36.711Z,17.3
2023-03-25T15:49:36.694Z,15.9
2023-03-25T16:05:36.708Z,14.9
2023-03-25T16:21:36.729Z,14.6
2023-03-25T16:36:36.736Z,14.1
2023-03-25T16:51:36.765Z,13.8
2023-03-25T17:06:36.761Z,13.4
2023-03-25T17:21:36.773Z,13.2
2023-03-25T17:36:36.824Z,12.9
2023-03-25T17:51:36.791Z,12.3
2023-03-25T18:06:36.801Z,12.2
2023-03-25T18:20:36.842Z,12.4
2023-03-25T18:34:36.841Z,12.4
2023-03-25T18:49:36.882Z,12.4
2023-03-25T19:03:36.887Z,12.2
2023-03-25T19:17:36.949Z,12.1
2023-03-25T19:31:36.912Z,12.2
2023-03-25T19:45:36.948Z,11.8
2023-03-25T19:59:36.946Z,11.0
2023-03-25T20:13:37.225Z,10.4
2023-03-25T20:27:36.996Z,9.8
2023-03-25T20:41:37.031Z,9.4
2023-03-25T20:55:37.034Z,9.0
2023-03-25T21:09:37.056Z,8.9
2023-03-25T21:23:37.032Z,8.9
2023-03-25T21:37:37.048Z,8.8
2023-03-25T21:51:37.103Z,8.6
2023-03-25T22:05:37.067Z,8.2
2023-03-25T22:19:37.085Z,8.0
2023-03-25T22:33:37.098Z,8.3
2023-03-25T22:47:37.152Z,8.7
2023-03-25T23:01:37.162Z,8.4
2023-03-25T23:15:37.181Z,7.8
2023-03-25T23:29:37.213Z,8.1
2023-03-25T23:43:37.319Z,7.7
2023-03-25T23:57:37.202Z,7.6
